Huletts Landing, NY (12841)

1:20 PM EDT on August 30, 2014 (GMT -0400)
South Bay | Change Station
CLOSE
Current Station
Personal Weather Station
Location: Whitehall, NY
Elevation: 131 ft
Nearby Weather Stations

Elev 131 ft 43.57 °N, 73.43 °W | Updated 10 seconds ago

Clear
Clear
73.8 °F
Feels Like 76 °F
N
0.0
Wind Variable Wind from WSW
Gusts 21.0 mph

Today
High -- | Low -- °F
--% Chance of Precip.
Yesterday
High -- | Low -- °F
Precip. -- in
6:15 AM 7:33 PM
Waxing Crescent, 23% visible
Pressure 30.17 in
Visibility 10.0 miles
Clouds Few 3900 ft
Heat Index 76 °F
Dew Point 62 °F
Humidity 66%
Rainfall 0.00 in
Snow Depth Not available.
UV 9 out of 12
Pollen 7.70 out of 12
Ozone Good
PM2.5 Good
Flu Activity Not available.
METAR KGFL 301653Z AUTO 20011G18KT 10SM FEW039 23/14 A3017 RMK AO2 SLP217 T02330139 $

More Conditions Fewer Conditions

Pressure 30.17 in
Visibility 10.0 miles
Clouds Few 3900 ft
Heat Index 76 °F
Dew Point 62 °F
Humidity 66%
Rainfall 0.00 in
Snow Depth Not available.
UV 9 out of 12
Pollen 7.70 out of 12
Ozone Good
PM2.5 Good
Flu Activity Not available.
METAR KGFL 301653Z AUTO 20011G18KT 10SM FEW039 23/14 A3017 RMK AO2 SLP217 T02330139 $

More Conditions Fewer Conditions

10-Day Weather Forecast

Almanac

Astronomy

Aug. 30, 2014 Rise Set
Actual Time 6:15 AM EDT 7:33 PM EDT
Civil Twilight 5:45 AM EDT 8:02 PM EDT
Nautical Twilight 5:09 AM EDT 8:38 PM EDT
Astronomical Twilight 4:32 AM EDT 9:15 PM EDT
Moon 11:10 AM EDT 9:55 PM EDT
Length of Visible Light 14h 16m
Length of Day
13h 17m
Tomorrow will be 2m 51s shorter.
Waxing Crescent, 23% of the Moon is Illuminated
Today
Waxing Crescent
Sep 2
First Quarter
Sep 8
Full
Sep 15
Last Quarter
Sep 24
New

Today's Extremes

State Highs State Lows

Community

WunderPhotos

Upload Photos

1,748,578 photos uploaded!

WunderBlogs® & News

Nearby

Air Quality

  Air Quality AQ Index Pollutant
Yesterday Good
OZONE
Yesterday Good
PM2.5
Current Good
OZONE
Current Good
PM2.5
Saturday Good
OZONE
Saturday Good
PM2.5
Sunday Good
PM2.5
Sunday Good
OZONE
Monday Moderate
OZONE
Monday Good
PM2.5
Tuesday Moderate
PM2.5
Tuesday Good
OZONE

Snow Depth

Station Depth Elevation
No new snow has been reported.

Earthquake Activity

City Distance Mag. Time & Date
No recent earthquake activity has been reported nearby.
Minimum magnitude displayed is 2.5.

Coastal Water Temperatures

Place Temperature
No Stations Reporting

Nearby Weather Stations